MST,Max TemperatureF,Mean TemperatureF,Min TemperatureF,Max Dew PointF,MeanDew PointF,Min DewpointF,Max Humidity, Mean Humidity, Min Humidity, Max Sea Level PressureIn, Mean Sea Level PressureIn, Min Sea Level PressureIn, Max VisibilityMiles, Mean VisibilityMiles, Min VisibilityMiles, Max Wind SpeedMPH, Mean Wind SpeedMPH, Max Gust SpeedMPH,PrecipitationIn, CloudCover, Events, WindDirDegrees
2012-12-1,61,52,44,22,21,20,39,28,21,29.90,29.81,29.74,10,10,10,16,11,26,0.00,0,,245
2012-12-2,,,,,,,,,,,,,,,,,,,,,,
2012-12-3,54,40,24,23,15,7,61,35,21,30.24,30.05,29.71,10,10,10,16,9,17,0.00,0,,27
2012-12-4,51,34,17,16,12,7,79,49,16,30.46,30.31,30.23,10,10,10,14,10,18,0.00,0,,22
2012-12-5,66,51,36,22,18,14,46,28,16,30.21,29.95,29.73,10,10,10,16,6,29,0.00,1,,274
2012-12-6,48,36,25,29,25,21,83,55,36,30.04,29.92,29.75,10,10,10,16,7,,0.00,2,Rain,23
2012-12-7,52,35,18,21,16,14,86,55,21,30.01,29.90,29.79,10,10,10,13,6,21,0.00,0,,112
2012-12-8,51,35,19,18,12,6,81,47,16,29.90,29.75,29.56,10,10,10,32,13,47,0.01,1,,265
2012-12-9,21,8,-4,14,7,-10,86,75,55,30.40,30.04,29.85,10,5,1,23,13,28,0.01,6,Snow,346
2012-12-10,34,16,-2,12,3,-9,73,56,37,30.25,30.10,29.99,10,10,10,12,6,,0.00,0,,36
2012-12-11,37,20,3,15,9,-1,86,63,28,30.21,30.01,29.81,10,10,10,21,7,24,0.00,1,Snow,6
2012-12-12,53,40,26,12,9,5,55,26,18,29.97,29.83,29.72,10,10,10,25,13,40,0.00,0,,272
2012-12-13,49,35,21,16,11,5,74,43,18,30.06,29.98,29.91,10,10,10,14,7,18,0.00,0,,6
2012-12-14,41,31,21,28,19,12,88,63,39,29.93,29.70,29.52,10,10,10,12,7,,0.00,0,,17
2012-12-15,41,33,25,22,15,10,71,44,34,29.78,29.70,29.64,10,10,10,17,9,33,0.00,1,,302
2012-12-16,42,31,20,13,7,1,64,34,19,29.93,29.72,29.61,10,10,10,17,9,29,0.00,0,,308
2012-12-17,47,36,25,12,8,1,37,29,24,29.81,29.69,29.57,10,10,10,20,13,43,0.00,0,,280
2012-12-18,46,34,22,17,13,11,80,45,23,29.79,29.69,29.60,10,10,10,18,8,20,0.00,0,,193
2012-12-19,21,11,1,18,10,-9,86,77,60,30.35,29.76,29.54,10,4,0,33,21,47,0.00,6,Snow,338
2012-12-20,43,22,1,7,-2,-11,56,32,15,30.46,30.34,30.18,10,10,10,17,7,26,0.00,0,,344
2012-12-21,47,32,18,12,2,-13,62,31,9,30.37,30.21,30.04,10,10,10,17,6,26,0.00,0,,8
2012-12-22,54,36,15,6,-4,-15,60,20,6,30.16,30.03,29.88,10,10,10,21,11,24,0.00,0,,326
2012-12-23,48,32,16,15,3,-13,60,27,9,30.00,29.92,29.83,10,10,10,25,11,40,0.00,0,,310
2012-12-24,42,28,14,20,16,7,93,71,27,29.95,29.78,29.68,10,8,2,13,6,16,0.00,5,Snow,159
2012-12-25,22,15,8,16,9,1,93,81,55,30.32,30.02,29.80,10,8,2,22,10,29,0.00,7,Snow,187
2012-12-26,28,16,5,15,7,2,92,80,52,30.12,29.90,29.62,10,8,1,10,2,,0.00,4,Snow,21
2012-12-27,31,20,10,18,14,6,93,77,49,29.96,29.76,29.56,10,8,1,16,9,,0.01,6,Snow,185
2012-12-28,27,13,-1,13,6,-7,93,75,36,30.35,29.99,29.80,10,10,9,13,4,,0.01,5,Snow,12
2012-12-29,32,14,-3,2,-3,-12,69,51,25,30.45,30.28,30.01,10,10,10,13,7,,0.00,0,,19
2012-12-30,39,24,8,6,-1,-7,65,36,20,30.09,30.02,29.94,10,10,10,18,6,22,0.00,0,,125
2012-12-31,23,15,7,16,10,3,86,75,56,30.19,29.96,29.84,10,8,2,8,5,,0.00,7,Snow,18